Time;durP1;ratioP1;P1;durP2;ratioP2;P2;SDS_P1;SDS_P2;PMS_P1;PMS_P2;Temp;Humidity;BMP_temperature;BMP_pressure;BME280_temperature;BME280_humidity;BME280_pressure;Samples;Min_cycle;Max_cycle;Signal;HPM_P1;HPM_P2
2023/05/17 00:00:56;;;;;;;3.22;1.50;;;17.40;49.20;;;;;;5093478;28;20210;-75
2023/05/17 00:03:23;;;;;;;3.42;2.42;;;17.40;49.20;;;;;;5092972;28;20713;-76
2023/05/17 00:05:52;;;;;;;3.25;1.60;;;17.40;49.30;;;;;;5093384;28;20214;-77
2023/05/17 00:08:20;;;;;;;3.13;1.38;;;17.40;49.30;;;;;;5093223;28;20261;-78
2023/05/17 00:10:47;;;;;;;4.05;1.67;;;17.40;49.30;;;;;;5075308;28;20240;-78
2023/05/17 00:13:14;;;;;;;3.88;1.50;;;17.40;49.30;;;;;;5093101;28;20265;-78
2023/05/17 00:15:41;;;;;;;3.10;1.60;;;17.40;49.40;;;;;;5092499;28;20214;-78
2023/05/17 00:18:08;;;;;;;2.75;1.48;;;17.40;49.40;;;;;;5093010;28;20187;-77
2023/05/17 00:20:35;;;;;;;4.63;1.70;;;17.40;49.40;;;;;;5092522;28;20579;-78
2023/05/17 00:23:04;;;;;;;3.42;1.40;;;17.40;49.40;;;;;;5093230;28;20217;-78
2023/05/17 00:25:31;;;;;;;4.82;1.65;;;17.40;49.40;;;;;;5093028;28;20218;-77
2023/05/17 00:27:58;;;;;;;2.78;1.40;;;17.40;49.40;;;;;;5092609;28;20182;-78
2023/05/17 00:30:25;;;;;;;2.65;1.50;;;17.40;49.50;;;;;;5092466;28;20240;-78
2023/05/17 00:32:52;;;;;;;2.78;1.55;;;17.40;49.50;;;;;;5092458;28;20186;-78
2023/05/17 00:35:20;;;;;;;2.83;1.60;;;17.40;49.60;;;;;;5092775;28;20213;-78
2023/05/17 00:37:47;;;;;;;1.88;1.30;;;17.40;49.60;;;;;;5092452;28;20277;-78
2023/05/17 00:40:17;;;;;;;3.28;1.83;;;17.40;49.60;;;;;;5090791;28;20218;-78
2023/05/17 00:42:43;;;;;;;3.38;1.90;;;17.40;49.60;;;;;;5076252;28;20198;-79
2023/05/17 00:45:11;;;;;;;3.30;1.65;;;17.30;49.60;;;;;;5072279;28;20214;-78
2023/05/17 00:47:38;;;;;;;5.22;1.52;;;17.30;49.60;;;;;;5067281;28;20195;-78
2023/05/17 00:50:06;;;;;;;3.20;1.60;;;17.40;49.70;;;;;;5072042;28;20637;-78
2023/05/17 00:52:33;;;;;;;3.45;1.70;;;17.30;49.60;;;;;;5071999;28;20545;-79
2023/05/17 00:55:00;;;;;;;4.03;1.73;;;17.30;49.60;;;;;;5072279;28;20237;-78
2023/05/17 00:57:30;;;;;;;3.70;1.73;;;17.30;49.60;;;;;;5072344;28;20191;-78
2023/05/17 00:59:58;;;;;;;3.78;1.63;;;17.40;49.70;;;;;;5071965;28;20218;-78
2023/05/17 01:02:25;;;;;;;3.15;1.70;;;17.40;49.70;;;;;;5072170;28;20276;-78
2023/05/17 01:04:52;;;;;;;2.22;1.27;;;17.30;49.70;;;;;;5072213;28;20218;-78
2023/05/17 01:07:19;;;;;;;2.13;1.58;;;17.30;49.70;;;;;;5072189;28;20277;-78
2023/05/17 01:09:47;;;;;;;4.07;1.88;;;17.30;49.70;;;;;;5071971;28;20222;-78
2023/05/17 01:12:24;;;;;;;3.20;1.92;;;17.30;49.70;;;;;;5071832;28;20260;-78
2023/05/17 01:15:03;;;;;;;4.15;1.83;;;17.30;49.70;;;;;;5071590;28;20730;-78
2023/05/17 01:17:39;;;;;;;5.25;1.60;;;17.30;49.80;;;;;;5072064;28;20186;-78
2023/05/17 01:20:14;;;;;;;2.95;1.65;;;17.30;49.80;;;;;;5071737;28;20256;-78
2023/05/17 01:22:50;;;;;;;3.58;1.70;;;17.30;49.80;;;;;;5072053;28;20190;-79
2023/05/17 01:25:28;;;;;;;2.42;1.58;;;17.30;49.80;;;;;;5071629;28;20696;-78
2023/05/17 01:28:01;;;;;;;4.18;1.70;;;17.30;49.80;;;;;;5075278;28;20186;-76
2023/05/17 01:30:29;;;;;;;3.05;1.73;;;17.30;49.80;;;;;;5075860;28;20273;-78
2023/05/17 01:32:58;;;;;;;2.42;1.60;;;17.30;49.90;;;;;;5075594;28;20561;-77
2023/05/17 01:35:26;;;;;;;3.40;1.55;;;17.30;49.90;;;;;;5075487;28;20597;-79
2023/05/17 01:37:53;;;;;;;4.85;1.75;;;17.30;49.90;;;;;;5075885;28;20190;-78
2023/05/17 01:40:21;;;;;;;2.30;1.85;;;17.30;49.90;;;;;;5075450;28;20218;-78
2023/05/17 01:42:53;;;;;;;4.40;1.90;;;17.30;49.90;;;;;;5076047;28;20182;-76
2023/05/17 01:45:26;;;;;;;3.42;1.50;;;17.30;49.90;;;;;;5075501;28;20218;-78
2023/05/17 01:48:08;;;;;;;1.85;1.50;;;17.30;50.60;;;;;;5075744;28;20290;-76
2023/05/17 01:50:38;;;;;;;2.55;1.55;;;17.30;50.00;;;;;;5075577;28;20234;-75
2023/05/17 01:53:10;;;;;;;2.55;1.65;;;17.30;50.00;;;;;;5075562;28;20285;-77
2023/05/17 01:55:47;;;;;;;2.22;1.55;;;17.30;50.00;;;;;;5075166;28;20704;-74
2023/05/17 01:58:15;;;;;;;2.80;1.67;;;17.20;50.00;;;;;;5075419;28;20198;-77
2023/05/17 02:00:48;;;;;;;4.38;1.73;;;17.30;50.00;;;;;;5075284;28;20211;-76
2023/05/17 02:03:18;;;;;;;3.45;1.85;;;17.30;50.00;;;;;;5075370;28;20199;-77
2023/05/17 02:05:45;;;;;;;1.88;1.42;;;17.20;50.00;;;;;;5074925;28;20219;-75
2023/05/17 02:08:12;;;;;;;5.43;1.60;;;17.30;50.00;;;;;;5075237;28;20197;-78
2023/05/17 02:10:39;;;;;;;2.20;1.63;;;17.20;50.00;;;;;;5075107;28;20237;-75
2023/05/17 02:13:06;;;;;;;2.47;1.50;;;17.30;50.10;;;;;;5075206;28;20193;-75
2023/05/17 02:15:33;;;;;;;3.60;1.67;;;17.20;50.00;;;;;;5075119;28;20215;-78
2023/05/17 02:18:02;;;;;;;1.95;1.75;;;17.20;50.00;;;;;;5075011;28;20223;-77
2023/05/17 02:20:30;;;;;;;2.53;1.77;;;17.20;50.00;;;;;;5074621;28;20234;-78
2023/05/17 02:22:57;;;;;;;3.40;2.13;;;17.20;50.00;;;;;;5075277;28;20215;-74
2023/05/17 02:25:24;;;;;;;2.78;1.80;;;17.20;50.10;;;;;;5074685;28;20223;-78
2023/05/17 02:27:51;;;;;;;2.78;1.77;;;17.20;50.10;;;;;;5074684;28;20277;-76
2023/05/17 02:30:20;;;;;;;2.95;1.67;;;17.20;50.10;;;;;;5074757;28;20591;-78
2023/05/17 02:32:48;;;;;;;2.28;1.75;;;17.20;50.10;;;;;;5074845;28;20270;-76
2023/05/17 02:35:16;;;;;;;2.65;1.75;;;17.20;50.10;;;;;;5074648;28;20215;-78
2023/05/17 02:37:43;;;;;;;5.50;2.03;;;17.20;50.10;;;;;;5074122;28;20531;-77
2023/05/17 02:40:11;;;;;;;2.92;1.98;;;17.20;50.10;;;;;;5074176;28;20225;-78
2023/05/17 02:42:38;;;;;;;3.75;1.83;;;17.20;50.10;;;;;;5074272;28;20546;-77
2023/05/17 02:45:06;;;;;;;4.10;1.98;;;17.20;50.20;;;;;;5074552;28;20218;-76
2023/05/17 02:47:33;;;;;;;2.72;1.83;;;17.20;50.20;;;;;;5074507;28;20285;-78
2023/05/17 02:50:00;;;;;;;3.50;1.65;;;17.20;50.10;;;;;;5074166;28;20313;-77
2023/05/17 02:52:28;;;;;;;2.17;1.58;;;17.20;50.20;;;;;;5074275;28;20215;-75
2023/05/17 02:54:55;;;;;;;3.17;2.13;;;17.20;50.20;;;;;;5074392;28;20221;-78
2023/05/17 02:57:22;;;;;;;2.80;1.92;;;17.20;50.20;;;;;;5074011;28;20661;-76
2023/05/17 02:59:50;;;;;;;5.50;2.10;;;17.20;50.20;;;;;;5056551;28;20210;-77
2023/05/17 03:02:17;;;;;;;2.42;1.83;;;17.20;50.20;;;;;;5074307;28;20183;-77
2023/05/17 03:04:44;;;;;;;2.08;1.70;;;17.20;50.20;;;;;;5073854;28;20187;-77
2023/05/17 03:07:11;;;;;;;4.05;1.98;;;17.20;50.20;;;;;;5074232;28;20193;-77
2023/05/17 03:09:40;;;;;;;3.38;1.98;;;17.20;50.20;;;;;;5074103;28;20233;-77
2023/05/17 03:12:09;;;;;;;2.95;1.83;;;17.20;50.30;;;;;;5074129;28;20268;-76
2023/05/17 03:14:36;;;;;;;3.15;2.10;;;17.20;50.30;;;;;;5073961;28;20190;-73
2023/05/17 03:17:03;;;;;;;2.40;1.63;;;17.20;50.30;;;;;;5073705;28;20187;-76
2023/05/17 03:19:30;;;;;;;2.20;1.98;;;17.20;50.30;;;;;;5073468;28;20314;-78
2023/05/17 03:21:57;;;;;;;4.38;1.92;;;17.20;50.30;;;;;;5073462;28;20692;-76
2023/05/17 03:24:24;;;;;;;3.22;1.92;;;17.20;50.40;;;;;;5056465;28;20220;-78
2023/05/17 03:26:52;;;;;;;4.07;2.10;;;17.20;50.40;;;;;;5073624;28;20654;-78
2023/05/17 03:29:20;;;;;;;5.35;2.33;;;17.20;50.40;;;;;;5073826;28;20197;-78
2023/05/17 03:31:47;;;;;;;3.72;2.03;;;17.10;50.40;;;;;;5073368;28;20280;-75
2023/05/17 03:34:14;;;;;;;7.05;2.30;;;17.10;50.40;;;;;;5073708;28;20214;-77
2023/05/17 03:36:41;;;;;;;3.83;2.15;;;17.20;50.50;;;;;;5073571;28;20284;-78
2023/05/17 03:39:08;;;;;;;3.90;2.13;;;17.20;50.50;;;;;;5073596;28;20190;-78
2023/05/17 03:41:35;;;;;;;3.35;2.13;;;17.20;50.50;;;;;;5073690;28;20214;-79
2023/05/17 03:44:04;;;;;;;3.30;2.20;;;17.10;50.50;;;;;;5073474;28;20238;-77
2023/05/17 03:46:31;;;;;;;4.85;2.13;;;17.20;50.60;;;;;;5073483;28;20214;-78
2023/05/17 03:48:58;;;;;;;3.55;2.17;;;17.10;50.50;;;;;;5073212;28;20272;-78
2023/05/17 03:51:25;;;;;;;7.38;2.53;;;17.10;50.60;;;;;;5072331;28;20234;-75
2023/05/17 03:53:58;;;;;;;3.50;2.15;;;17.10;50.60;;;;;;5055441;28;20183;-78
2023/05/17 03:56:25;;;;;;;3.60;2.10;;;17.10;50.60;;;;;;5073177;28;20226;-76
2023/05/17 03:58:52;;;;;;;3.90;2.08;;;17.10;50.60;;;;;;5073179;28;20207;-79
2023/05/17 04:01:21;;;;;;;3.53;2.15;;;17.10;50.60;;;;;;5073452;28;20218;-79
2023/05/17 04:03:48;;;;;;;4.47;2.53;;;17.10;50.60;;;;;;5072788;28;20191;-75
2023/05/17 04:06:15;;;;;;;4.22;2.97;;;17.10;50.60;;;;;;5073138;28;20246;-78
2023/05/17 04:08:42;;;;;;;4.15;2.60;;;17.10;50.70;;;;;;5073154;28;20187;-79
2023/05/17 04:11:12;;;;;;;3.75;2.35;;;17.10;50.70;;;;;;5072980;28;20245;-79
2023/05/17 04:13:39;;;;;;;3.40;2.67;;;17.10;50.70;;;;;;5072916;28;20191;-78
2023/05/17 04:16:07;;;;;;;4.68;2.40;;;17.10;50.70;;;;;;5072622;28;20587;-78
2023/05/17 04:18:37;;;;;;;4.10;2.50;;;17.10;50.80;;;;;;5054802;28;20191;-79
2023/05/17 04:21:05;;;;;;;3.58;2.58;;;17.10;50.80;;;;;;5072815;28;20219;-77
2023/05/17 04:23:33;;;;;;;4.90;3.00;;;17.10;50.80;;;;;;5072732;28;20202;-79
2023/05/17 04:26:00;;;;;;;3.85;2.83;;;17.10;50.80;;;;;;5072622;28;20210;-78
2023/05/17 04:28:27;;;;;;;7.32;2.95;;;17.10;50.80;;;;;;5072623;28;20190;-78
2023/05/17 04:30:55;;;;;;;4.78;3.00;;;17.10;50.80;;;;;;5072543;28;20215;-76
2023/05/17 04:33:23;;;;;;;4.43;2.88;;;17.10;50.90;;;;;;5072540;28;20201;-79
2023/05/17 04:35:55;;;;;;;4.63;2.80;;;17.10;50.90;;;;;;5072640;28;20218;-78
2023/05/17 04:38:23;;;;;;;4.28;2.90;;;17.10;50.90;;;;;;5072468;28;20183;-79
2023/05/17 04:40:50;;;;;;;5.80;3.15;;;17.10;50.90;;;;;;5072361;28;20218;-78
2023/05/17 04:43:17;;;;;;;3.85;3.00;;;17.10;50.90;;;;;;5072168;28;20194;-78
2023/05/17 04:45:44;;;;;;;5.70;2.95;;;17.10;50.90;;;;;;5072506;28;20280;-78
2023/05/17 04:48:12;;;;;;;4.53;3.05;;;17.10;50.90;;;;;;5072067;28;20637;-79
2023/05/17 04:50:39;;;;;;;5.38;3.20;;;17.10;50.90;;;;;;5072049;28;20214;-78
2023/05/17 04:53:08;;;;;;;4.97;3.10;;;17.10;51.00;;;;;;5072194;28;20215;-78
2023/05/17 04:55:35;;;;;;;3.70;2.85;;;17.10;51.00;;;;;;5072291;28;20218;-78
2023/05/17 04:58:02;;;;;;;9.55;4.38;;;17.10;51.00;;;;;;5072114;28;20191;-78
2023/05/17 05:00:29;;;;;;;6.45;3.40;;;17.10;51.00;;;;;;5072180;28;20219;-76
2023/05/17 05:02:56;;;;;;;4.75;3.08;;;17.10;51.10;;;;;;5071927;28;20187;-78
2023/05/17 05:05:24;;;;;;;6.28;3.22;;;17.10;51.10;;;;;;5071943;28;20225;-79
2023/05/17 05:07:51;;;;;;;7.13;3.38;;;17.10;51.10;;;;;;5071865;28;20233;-77
2023/05/17 05:10:21;;;;;;;6.60;3.38;;;17.10;51.10;;;;;;5071853;28;20215;-78
2023/05/17 05:12:48;;;;;;;4.32;3.05;;;17.10;51.10;;;;;;5072036;28;20211;-78
2023/05/17 05:15:16;;;;;;;4.40;3.10;;;17.10;51.20;;;;;;5071820;28;20724;-78
2023/05/17 05:17:42;;;;;;;5.25;3.55;;;17.10;51.20;;;;;;5071831;28;20564;-78
2023/05/17 05:20:11;;;;;;;5.93;3.45;;;17.10;51.20;;;;;;5071650;28;20252;-78
2023/05/17 05:22:38;;;;;;;6.22;3.75;;;17.10;51.30;;;;;;5072267;28;20197;-78
2023/05/17 05:25:05;;;;;;;7.00;3.58;;;17.10;51.30;;;;;;5072582;28;20287;-76
2023/05/17 05:27:35;;;;;;;6.53;3.80;;;17.10;51.30;;;;;;5071757;28;20219;-73
2023/05/17 05:30:02;;;;;;;4.70;3.20;;;17.10;51.30;;;;;;5071759;28;20190;-71
2023/05/17 05:32:29;;;;;;;7.40;3.25;;;17.10;51.40;;;;;;5071546;28;20268;-76
2023/05/17 05:34:57;;;;;;;6.25;3.58;;;17.10;51.40;;;;;;5072115;28;20285;-76
2023/05/17 05:37:24;;;;;;;5.03;3.47;;;17.10;51.40;;;;;;5072011;28;20210;-72
2023/05/17 05:39:51;;;;;;;6.90;3.30;;;17.10;51.40;;;;;;5071551;28;20653;-76
2023/05/17 05:42:18;;;;;;;8.50;3.40;;;17.10;51.50;;;;;;5053799;28;20201;-73
2023/05/17 05:44:47;;;;;;;5.13;3.67;;;17.10;51.50;;;;;;5071459;28;20193;-77
2023/05/17 05:47:14;;;;;;;6.55;3.50;;;17.10;51.50;;;;;;5071511;28;20234;-75
2023/05/17 05:49:41;;;;;;;9.82;4.07;;;17.10;51.50;;;;;;5071419;28;20191;-74
2023/05/17 05:52:08;;;;;;;9.90;3.42;;;17.10;51.50;;;;;;5071561;28;20317;-76
2023/05/17 05:54:35;;;;;;;5.50;3.42;;;17.10;51.50;;;;;;5071723;28;20197;-75
2023/05/17 05:57:02;;;;;;;7.32;3.95;;;17.10;51.60;;;;;;5071632;28;20214;-76
2023/05/17 05:59:29;;;;;;;8.05;3.75;;;17.10;51.60;;;;;;5071391;28;20696;-75
2023/05/17 06:01:58;;;;;;;6.43;3.95;;;17.20;51.70;;;;;;5071578;28;20301;-76
2023/05/17 06:04:25;;;;;;;8.27;3.97;;;17.20;51.70;;;;;;5071681;28;20279;-76
2023/05/17 06:06:53;;;;;;;5.00;3.47;;;17.20;51.70;;;;;;5071716;28;20302;-75
2023/05/17 06:09:20;;;;;;;8.52;4.03;;;17.20;51.70;;;;;;5071544;28;20213;-76
2023/05/17 06:11:47;;;;;;;6.93;3.83;;;17.20;51.70;;;;;;5053785;28;20230;-78
2023/05/17 06:14:14;;;;;;;6.63;3.67;;;17.20;51.80;;;;;;5073454;28;20198;-74
2023/05/17 06:16:41;;;;;;;7.28;4.00;;;17.20;51.80;;;;;;5075351;28;20221;-71
2023/05/17 06:19:10;;;;;;;9.68;3.92;;;17.20;52.40;;;;;;5074760;28;20229;-74
2023/05/17 06:21:37;;;;;;;5.70;4.13;;;17.20;51.80;;;;;;5074583;28;20620;-71
2023/05/17 06:24:04;;;;;;;6.60;3.92;;;17.20;51.80;;;;;;5075074;28;20201;-73
2023/05/17 06:26:31;;;;;;;6.38;3.85;;;17.20;51.90;;;;;;5075106;28;20214;-76
2023/05/17 06:28:58;;;;;;;7.85;4.10;;;17.20;51.90;;;;;;5074568;28;20190;-73
2023/05/17 06:31:25;;;;;;;8.63;4.13;;;17.20;51.90;;;;;;5074769;28;20237;-72
2023/05/17 06:33:52;;;;;;;9.55;4.35;;;17.30;52.10;;;;;;5074732;28;20184;-76
2023/05/17 06:36:21;;;;;;;6.88;4.18;;;17.30;52.10;;;;;;5074886;28;20221;-77
2023/05/17 06:38:48;;;;;;;6.70;4.00;;;17.20;52.60;;;;;;5074442;28;20193;-77
2023/05/17 06:41:15;;;;;;;6.80;4.07;;;17.30;52.10;;;;;;5074741;28;20214;-74
2023/05/17 06:43:42;;;;;;;7.07;4.10;;;17.30;52.10;;;;;;5074627;28;20191;-77
2023/05/17 06:46:09;;;;;;;7.75;4.35;;;17.30;52.10;;;;;;5074676;28;20620;-77
2023/05/17 06:48:36;;;;;;;5.60;3.65;;;17.30;52.10;;;;;;5074605;28;20223;-76
2023/05/17 06:51:03;;;;;;;9.40;4.85;;;17.30;52.10;;;;;;5074434;28;20217;-73
2023/05/17 06:53:32;;;;;;;6.53;4.13;;;17.30;52.80;;;;;;5074449;28;20215;-76
2023/05/17 06:55:59;;;;;;;6.55;4.10;;;17.30;52.10;;;;;;5074590;28;20220;-75
2023/05/17 06:58:26;;;;;;;6.13;4.13;;;17.30;52.20;;;;;;5076599;28;20194;-71
2023/05/17 07:00:53;;;;;;;8.45;4.30;;;17.30;52.20;;;;;;5092803;28;20226;-74
2023/05/17 07:03:21;;;;;;;5.90;4.13;;;17.40;52.30;;;;;;5093719;28;20269;-70
2023/05/17 07:05:48;;;;;;;8.07;4.28;;;17.40;52.40;;;;;;5093918;28;20214;-73
2023/05/17 07:08:15;;;;;;;9.48;4.35;;;17.40;52.80;;;;;;5093736;28;20710;-70
2023/05/17 07:10:43;;;;;;;7.10;4.50;;;17.40;52.40;;;;;;5073664;28;20726;-70
2023/05/17 07:13:10;;;;;;;8.23;4.40;;;17.50;52.40;;;;;;5077099;28;20211;-71
2023/05/17 07:15:38;;;;;;;7.68;4.25;;;17.60;52.40;;;;;;5085458;28;20217;-69
2023/05/17 07:18:05;;;;;;;8.02;3.75;;;17.70;52.40;;;;;;5057374;28;20190;-69
2023/05/17 07:20:32;;;;;;;8.88;4.15;;;17.70;52.30;;;;;;5070566;28;20233;-70
2023/05/17 07:22:59;;;;;;;8.90;3.97;;;17.80;52.20;;;;;;5092679;28;20763;-70
2023/05/17 07:25:26;;;;;;;7.20;4.13;;;17.90;52.20;;;;;;5074778;28;20186;-70
2023/05/17 07:27:55;;;;;;;7.60;4.20;;;17.90;52.10;;;;;;5093120;28;20197;-70
2023/05/17 07:30:22;;;;;;;7.45;4.18;;;18.10;52.10;;;;;;5093035;28;20273;-70
2023/05/17 07:32:56;;;;;;;6.38;4.47;;;18.10;51.90;;;;;;5079204;28;20313;-70
2023/05/17 07:35:24;;;;;;;8.52;4.35;;;18.20;51.90;;;;;;5083941;28;20279;-70
2023/05/17 07:37:51;;;;;;;6.85;4.00;;;18.20;51.80;;;;;;5082244;28;20186;-71
2023/05/17 07:40:19;;;;;;;7.28;3.90;;;18.20;51.80;;;;;;5092398;28;20236;-70
2023/05/17 07:42:46;;;;;;;5.80;3.70;;;18.30;51.70;;;;;;5039225;28;20196;-71
2023/05/17 07:45:14;;;;;;;10.43;4.60;;;18.40;51.70;;;;;;5091668;28;20186;-70
2023/05/17 07:47:41;;;;;;;7.22;4.22;;;18.40;51.70;;;;;;5091846;28;20310;-73
2023/05/17 07:50:09;;;;;;;6.85;3.92;;;18.40;51.70;;;;;;5092508;28;20265;-72
2023/05/17 07:52:36;;;;;;;9.80;4.10;;;18.40;51.80;;;;;;5091630;28;20668;-71
2023/05/17 07:55:04;;;;;;;6.68;4.10;;;18.40;51.80;;;;;;5091950;28;20543;-72
2023/05/17 07:57:31;;;;;;;5.97;3.85;;;18.50;51.90;;;;;;5091373;28;20221;-71
2023/05/17 07:59:58;;;;;;;7.97;4.03;;;18.50;51.90;;;;;;5092183;28;20273;-72
2023/05/17 08:02:27;;;;;;;13.20;3.97;;;18.50;52.60;;;;;;5091328;28;20226;-71
2023/05/17 08:04:54;;;;;;;7.28;3.97;;;18.60;52.00;;;;;;5092109;28;20223;-71
2023/05/17 08:07:21;;;;;;;9.60;4.30;;;18.60;52.00;;;;;;5091721;28;20210;-71
2023/05/17 08:09:48;;;;;;;6.45;4.20;;;18.60;52.00;;;;;;5091517;28;20187;-71
2023/05/17 08:12:15;;;;;;;7.55;4.18;;;18.60;52.00;;;;;;5074135;28;20229;-70
2023/05/17 08:14:42;;;;;;;10.13;4.00;;;18.60;52.10;;;;;;5091370;28;20186;-70
2023/05/17 08:17:10;;;;;;;8.20;3.90;;;18.60;52.10;;;;;;5081448;28;20215;-70
2023/05/17 08:19:39;;;;;;;8.23;3.90;;;18.60;52.10;;;;;;5082878;28;20229;-71
2023/05/17 08:22:06;;;;;;;9.18;3.90;;;18.60;52.10;;;;;;5077550;28;20221;-71
2023/05/17 08:24:33;;;;;;;7.93;4.32;;;18.60;52.10;;;;;;5068691;28;20329;-70
2023/05/17 08:27:01;;;;;;;6.68;4.20;;;18.70;52.20;;;;;;5072812;28;20268;-70
2023/05/17 08:29:28;;;;;;;7.80;3.97;;;18.70;52.40;;;;;;5074652;28;20216;-70
2023/05/17 08:31:55;;;;;;;9.38;4.28;;;18.70;53.10;;;;;;5077994;28;20304;-70
2023/05/17 08:34:22;;;;;;;7.93;4.57;;;18.70;52.60;;;;;;5077011;28;20228;-69
2023/05/17 08:36:55;;;;;;;9.73;4.40;;;18.70;52.50;;;;;;5077638;28;20221;-70
2023/05/17 08:39:24;;;;;;;8.38;4.25;;;18.70;52.50;;;;;;5054070;28;20194;-70
2023/05/17 08:41:52;;;;;;;7.68;3.92;;;18.70;52.50;;;;;;5078256;28;20222;-69
2023/05/17 08:44:20;;;;;;;9.27;4.10;;;18.70;52.60;;;;;;5077809;28;20213;-70
2023/05/17 08:46:51;;;;;;;7.65;4.35;;;18.70;52.60;;;;;;5075200;28;20325;-70
2023/05/17 08:49:20;;;;;;;9.77;4.38;;;18.80;53.30;;;;;;5077118;28;20221;-70
2023/05/17 08:51:50;;;;;;;8.82;4.15;;;18.80;52.70;;;;;;5077506;28;20317;-70
2023/05/17 08:54:19;;;;;;;8.80;4.40;;;18.70;52.50;;;;;;5076347;28;20255;-70
2023/05/17 08:56:50;;;;;;;9.07;3.88;;;18.70;52.50;;;;;;5074749;28;20225;-71
2023/05/17 08:59:19;;;;;;;7.88;4.05;;;18.80;52.60;;;;;;5073483;28;20238;-71
2023/05/17 09:01:49;;;;;;;6.53;3.85;;;18.80;52.50;;;;;;5075746;28;20308;-71
2023/05/17 09:04:16;;;;;;;11.68;4.22;;;18.80;52.50;;;;;;5075508;28;20205;-71
2023/05/17 09:06:45;;;;;;;6.25;3.85;;;18.80;52.50;;;;;;5076776;28;20707;-71
2023/05/17 09:09:13;;;;;;;8.25;4.30;;;18.80;52.50;;;;;;5080370;28;20210;-72
2023/05/17 09:11:41;;;;;;;5.93;3.78;;;18.80;52.50;;;;;;5076201;28;20244;-71
2023/05/17 09:14:09;;;;;;;5.65;3.67;;;18.80;52.50;;;;;;5073464;28;20224;-71
2023/05/17 09:16:37;;;;;;;6.95;4.40;;;18.80;52.50;;;;;;5077502;28;22208;-71
2023/05/17 09:19:07;;;;;;;10.63;4.55;;;18.90;52.50;;;;;;5050536;28;20255;-71
2023/05/17 09:21:35;;;;;;;9.15;4.35;;;18.90;52.50;;;;;;5034025;28;20206;-71
2023/05/17 09:24:02;;;;;;;8.77;4.65;;;18.90;52.40;;;;;;5036999;28;20203;-71
2023/05/17 09:26:39;;;;;;;10.30;4.72;;;18.90;53.10;;;;;;5037197;28;20206;-71
2023/05/17 09:29:10;;;;;;;7.70;4.25;;;18.90;52.40;;;;;;5035136;28;20202;-71
2023/05/17 09:31:38;;;;;;;7.10;3.90;;;18.90;52.40;;;;;;5036042;28;20271;-71
2023/05/17 09:34:07;;;;;;;9.35;3.92;;;19.00;52.50;;;;;;5036884;28;20613;-71
2023/05/17 09:36:36;;;;;;;7.88;4.15;;;19.00;52.40;;;;;;5038661;28;20208;-70
2023/05/17 09:39:05;;;;;;;8.27;4.25;;;18.90;52.30;;;;;;5037616;28;20203;-73
2023/05/17 09:41:33;;;;;;;13.65;4.20;;;19.00;52.40;;;;;;5034735;28;20214;-72
2023/05/17 09:44:02;;;;;;;8.55;4.80;;;19.00;52.40;;;;;;5034698;28;20776;-71
2023/05/17 09:46:41;;;;;;;7.07;4.25;;;19.00;52.30;;;;;;5035897;28;20202;-71
2023/05/17 09:49:09;;;;;;;8.70;4.35;;;19.00;52.20;;;;;;5036107;28;20199;-72
2023/05/17 09:51:39;;;;;;;9.05;4.70;;;19.00;52.20;;;;;;5042799;28;20200;-71
2023/05/17 09:54:07;;;;;;;8.95;4.45;;;19.00;52.20;;;;;;5041531;28;20239;-71
2023/05/17 09:56:35;;;;;;;7.82;4.05;;;19.10;52.10;;;;;;5039884;28;20195;-73
2023/05/17 09:59:03;;;;;;;5.85;3.90;;;19.00;52.10;;;;;;5041334;28;20227;-71
2023/05/17 10:01:31;;;;;;;9.15;4.53;;;19.10;52.20;;;;;;5044452;28;20210;-71
2023/05/17 10:04:02;;;;;;;8.40;3.85;;;19.10;52.30;;;;;;5036378;28;20229;-71
2023/05/17 10:06:30;;;;;;;7.78;4.07;;;19.10;52.30;;;;;;5040834;28;20212;-71
2023/05/17 10:08:58;;;;;;;9.40;4.20;;;19.20;52.30;;;;;;5039068;28;20219;-72
2023/05/17 10:11:32;;;;;;;8.30;4.05;;;19.20;52.30;;;;;;5036691;28;20226;-71
2023/05/17 10:14:07;;;;;;;12.60;4.47;;;19.20;52.10;;;;;;5038144;28;20609;-72
2023/05/17 10:16:34;;;;;;;10.85;4.28;;;19.20;52.20;;;;;;5035305;28;20187;-71
2023/05/17 10:19:03;;;;;;;12.57;4.18;;;19.20;52.10;;;;;;5036377;28;20245;-71
2023/05/17 10:21:32;;;;;;;10.38;4.35;;;19.20;52.10;;;;;;5039249;28;22071;-71
2023/05/17 10:24:01;;;;;;;9.18;4.13;;;19.20;52.10;;;;;;5041729;28;20610;-71
2023/05/17 10:26:30;;;;;;;11.02;5.05;;;19.20;52.10;;;;;;5036999;28;20767;-72
2023/05/17 10:29:00;;;;;;;13.05;4.45;;;19.20;52.00;;;;;;5038143;28;20226;-71
2023/05/17 10:31:31;;;;;;;11.68;4.50;;;19.20;52.00;;;;;;5042309;28;20226;-71
2023/05/17 10:34:00;;;;;;;7.22;4.20;;;19.30;52.10;;;;;;5039070;28;20739;-71
2023/05/17 10:36:29;;;;;;;8.75;4.68;;;19.20;52.00;;;;;;5039689;28;20202;-71
2023/05/17 10:38:58;;;;;;;9.55;4.50;;;19.30;52.00;;;;;;5035494;28;20229;-71
2023/05/17 10:41:30;;;;;;;9.27;4.50;;;19.20;51.90;;;;;;5038035;28;20290;-70
2023/05/17 10:43:58;;;;;;;8.43;3.97;;;19.30;51.90;;;;;;5039693;28;20264;-71
2023/05/17 10:46:26;;;;;;;8.10;4.50;;;19.30;51.90;;;;;;5036767;28;20977;-71
2023/05/17 10:48:54;;;;;;;11.02;4.13;;;19.30;51.90;;;;;;5037601;28;20227;-71
2023/05/17 10:51:24;;;;;;;6.78;4.22;;;19.30;52.00;;;;;;5041597;28;20700;-71
2023/05/17 10:54:12;;;;;;;8.60;4.30;;;19.30;51.90;;;;;;5037514;28;20226;-71
2023/05/17 10:56:41;;;;;;;6.70;3.72;;;19.30;51.90;;;;;;5039862;28;20249;-71
2023/05/17 10:59:16;;;;;;;9.13;4.18;;;19.30;51.90;;;;;;5034515;28;20232;-70
2023/05/17 11:01:59;;;;;;;8.40;3.85;;;19.30;51.90;;;;;;5035505;28;20557;-73
2023/05/17 11:04:28;;;;;;;6.53;4.35;;;19.30;51.70;;;;;;5032916;28;20235;-72
2023/05/17 11:07:23;;;;;;;11.93;4.57;;;19.30;51.90;;;;;;5037903;28;20200;-71
2023/05/17 11:09:54;;;;;;;8.23;4.50;;;19.30;51.70;;;;;;5038190;28;20309;-72
2023/05/17 11:12:35;;;;;;;8.52;4.63;;;19.30;51.70;;;;;;5036585;28;20218;-72
2023/05/17 11:15:05;;;;;;;7.10;3.92;;;19.30;51.70;;;;;;5036595;28;20241;-71
2023/05/17 11:17:37;;;;;;;9.63;3.85;;;19.20;51.60;;;;;;5040023;28;20271;-73
2023/05/17 11:20:09;;;;;;;11.70;3.90;;;19.30;51.80;;;;;;5062518;28;20235;-72
2023/05/17 11:22:39;;;;;;;8.13;4.28;;;19.30;51.90;;;;;;5075798;28;20194;-73
2023/05/17 11:25:10;;;;;;;6.45;3.72;;;19.30;51.80;;;;;;5073842;28;20234;-74
2023/05/17 11:27:44;;;;;;;7.20;4.30;;;19.30;51.90;;;;;;5071905;28;20915;-72
2023/05/17 11:30:21;;;;;;;6.57;3.60;;;19.30;51.90;;;;;;5072586;28;20271;-73
2023/05/17 11:32:49;;;;;;;10.50;4.60;;;19.30;51.90;;;;;;5076854;28;20209;-72
2023/05/17 11:35:18;;;;;;;9.00;4.72;;;19.30;51.90;;;;;;5077632;28;20296;-70
2023/05/17 11:37:48;;;;;;;9.30;3.65;;;19.30;51.90;;;;;;5073941;28;20192;-73
2023/05/17 11:40:25;;;;;;;7.45;4.32;;;19.30;52.10;;;;;;5077165;28;20565;-72
2023/05/17 11:43:14;;;;;;;7.63;4.55;;;19.30;52.40;;;;;;5062153;28;20198;-72
2023/05/17 11:45:46;;;;;;;6.32;3.95;;;19.30;52.50;;;;;;5078134;28;20606;-72
2023/05/17 11:48:14;;;;;;;6.45;4.10;;;19.30;52.60;;;;;;5080001;28;20198;-73
2023/05/17 11:50:44;;;;;;;10.63;4.53;;;19.40;52.80;;;;;;5079116;28;20698;-72
2023/05/17 11:53:12;;;;;;;12.25;4.13;;;19.50;52.90;;;;;;5081120;28;20284;-71
2023/05/17 11:55:42;;;;;;;11.80;4.00;;;19.50;52.90;;;;;;5079702;28;20244;-71
2023/05/17 11:58:10;;;;;;;7.93;4.57;;;19.50;52.80;;;;;;5079851;28;20202;-72
2023/05/17 12:00:39;;;;;;;7.25;4.10;;;19.50;52.90;;;;;;5081088;28;20194;-73
2023/05/17 12:03:21;;;;;;;14.40;4.47;;;19.50;52.80;;;;;;5071953;28;20838;-72
2023/05/17 12:05:51;;;;;;;8.30;4.35;;;19.50;52.80;;;;;;5069981;28;20198;-72
2023/05/17 12:08:22;;;;;;;12.73;4.47;;;19.50;52.90;;;;;;5076891;28;20239;-71
2023/05/17 12:10:52;;;;;;;21.08;6.07;;;19.50;52.80;;;;;;5076071;28;20703;-71
2023/05/17 12:13:21;;;;;;;31.90;7.32;;;19.50;52.80;;;;;;5078643;28;20312;-73
2023/05/17 12:15:56;;;;;;;26.55;6.68;;;19.50;52.90;;;;;;5076309;28;20229;-72
2023/05/17 12:18:24;;;;;;;21.58;6.75;;;19.40;52.90;;;;;;5079225;28;20783;-73
2023/05/17 12:20:56;;;;;;;29.45;7.68;;;19.50;53.00;;;;;;5077896;28;20647;-72
2023/05/17 12:23:30;;;;;;;26.50;7.25;;;19.40;52.90;;;;;;5074642;28;20259;-71
2023/05/17 12:26:20;;;;;;;51.55;9.95;;;19.40;53.20;;;;;;5073984;28;20300;-71
2023/05/17 12:28:54;;;;;;;36.60;10.82;;;19.40;53.30;;;;;;5079093;28;20314;-71
2023/05/17 12:31:26;;;;;;;69.82;15.35;;;19.40;53.60;;;;;;5089220;28;20216;-72
2023/05/17 12:33:55;;;;;;;58.40;14.70;;;19.40;53.80;;;;;;5058163;28;20351;-71
2023/05/17 12:36:22;;;;;;;105.90;22.02;;;19.50;54.00;;;;;;5076885;28;20224;-76
2023/05/17 12:38:50;;;;;;;112.60;24.30;;;19.50;54.20;;;;;;5074929;28;20275;-73
2023/05/17 12:41:21;;;;;;;101.20;24.33;;;19.60;54.30;;;;;;5068300;28;20312;-74
2023/05/17 12:43:49;;;;;;;77.13;20.75;;;19.60;54.40;;;;;;5073464;28;20246;-72
2023/05/17 12:46:19;;;;;;;117.65;27.00;;;19.60;54.70;;;;;;5076169;28;20680;-72
2023/05/17 12:48:47;;;;;;;201.32;36.72;;;19.60;54.90;;;;;;5075391;28;20594;-71
2023/05/17 12:51:16;;;;;;;145.32;30.23;;;19.70;55.00;;;;;;5071663;28;20240;-72
2023/05/17 12:53:44;;;;;;;87.43;25.40;;;19.70;55.40;;;;;;5070584;28;20367;-72